Time;durP1;ratioP1;P1;durP2;ratioP2;P2;SDS_P1;SDS_P2;PMS_P1;PMS_P2;Temp;Humidity;BMP_temperature;BMP_pressure;BME280_temperature;BME280_humidity;BME280_pressure;Samples;Min_cycle;Max_cycle;Signal;HPM_P1;HPM_P2
2023/11/30 00:02:14;;;;;;;11.47;6.07;;;1.90;99.90;;;;;;4918345;29;20130;-74
2023/11/30 00:04:40;;;;;;;12.37;6.43;;;1.90;99.90;;;;;;4937730;29;20032;-74
2023/11/30 00:07:10;;;;;;;12.23;6.13;;;1.90;99.90;;;;;;4938633;29;20711;-74
2023/11/30 00:09:36;;;;;;;10.03;6.03;;;1.80;99.90;;;;;;4921870;29;20043;-74
2023/11/30 00:12:03;;;;;;;13.50;6.30;;;1.80;99.90;;;;;;4938448;29;20036;-74
2023/11/30 00:14:29;;;;;;;11.67;6.23;;;1.80;99.90;;;;;;4921700;29;20023;-74
2023/11/30 00:16:55;;;;;;;12.07;6.37;;;1.80;99.90;;;;;;4938133;29;20028;-74
2023/11/30 00:19:21;;;;;;;11.77;6.57;;;1.80;99.90;;;;;;4938783;29;20027;-74
2023/11/30 00:21:46;;;;;;;14.20;7.20;;;1.70;99.90;;;;;;4938791;29;20552;-74
2023/11/30 00:24:12;;;;;;;12.27;6.37;;;1.70;99.90;;;;;;4921295;29;20036;-74
2023/11/30 00:26:38;;;;;;;11.60;6.20;;;1.60;99.90;;;;;;4921526;29;20148;-74
2023/11/30 00:29:04;;;;;;;11.00;6.23;;;1.70;99.90;;;;;;4920734;29;20106;-75
2023/11/30 00:31:29;;;;;;;12.77;6.60;;;1.70;99.90;;;;;;4938535;29;20107;-74
2023/11/30 00:33:55;;;;;;;11.30;6.60;;;1.70;99.90;;;;;;4938215;29;20137;-74
2023/11/30 00:36:21;;;;;;;11.00;6.10;;;1.70;99.90;;;;;;4921566;29;20532;-74
2023/11/30 00:38:46;;;;;;;16.27;8.73;;;1.70;99.90;;;;;;4938392;29;20054;-74
2023/11/30 00:41:16;;;;;;;12.70;7.23;;;1.70;99.90;;;;;;4920875;29;20027;-73
2023/11/30 00:43:41;;;;;;;12.03;6.17;;;1.70;99.90;;;;;;4921229;29;20039;-73
2023/11/30 00:46:14;;;;;;;10.30;6.20;;;1.70;99.90;;;;;;4920829;29;20115;-73
2023/11/30 00:48:40;;;;;;;12.70;6.43;;;1.70;99.90;;;;;;4938336;29;20027;-74
2023/11/30 00:51:10;;;;;;;12.23;6.03;;;1.70;99.90;;;;;;4920601;29;20389;-74
2023/11/30 00:53:36;;;;;;;12.47;6.07;;;1.70;99.90;;;;;;4938168;29;20130;-74
2023/11/30 00:56:01;;;;;;;10.40;5.93;;;1.70;99.90;;;;;;4920722;29;20055;-74
2023/11/30 00:58:28;;;;;;;12.77;6.17;;;1.70;99.90;;;;;;4921187;29;20481;-75
2023/11/30 01:00:54;;;;;;;10.90;5.80;;;1.70;99.90;;;;;;4937551;29;20030;-74
2023/11/30 01:03:19;;;;;;;10.47;5.67;;;1.70;99.90;;;;;;4920824;29;20035;-73
2023/11/30 01:05:45;;;;;;;12.60;6.40;;;1.70;99.90;;;;;;4920859;29;20095;-73
2023/11/30 01:08:12;;;;;;;9.37;5.83;;;1.70;99.90;;;;;;4920413;29;20035;-74
2023/11/30 01:10:38;;;;;;;10.77;5.67;;;1.70;99.90;;;;;;4920889;29;20127;-73
2023/11/30 01:13:03;;;;;;;10.37;5.27;;;1.70;99.90;;;;;;4920404;29;20111;-73
2023/11/30 01:15:29;;;;;;;12.13;5.83;;;1.70;99.90;;;;;;4920593;29;20503;-73
2023/11/30 01:17:54;;;;;;;11.13;5.57;;;1.60;99.90;;;;;;4920292;29;20537;-74
2023/11/30 01:20:20;;;;;;;9.77;5.53;;;1.70;99.90;;;;;;4920666;29;20027;-73
2023/11/30 01:22:46;;;;;;;10.27;5.70;;;1.70;99.90;;;;;;4940718;29;20411;-74
2023/11/30 01:25:12;;;;;;;10.13;5.23;;;1.70;99.90;;;;;;4971067;28;20031;-73
2023/11/30 01:27:37;;;;;;;8.53;5.33;;;1.70;99.90;;;;;;4955627;29;20027;-74
2023/11/30 01:30:03;;;;;;;11.53;5.57;;;1.70;99.90;;;;;;4954937;29;20031;-73
2023/11/30 01:32:29;;;;;;;10.40;5.57;;;1.80;99.90;;;;;;4956696;29;20031;-73
2023/11/30 01:34:54;;;;;;;9.23;5.20;;;1.80;99.90;;;;;;4954824;29;20066;-74
2023/11/30 01:37:20;;;;;;;11.23;5.23;;;1.80;99.90;;;;;;4956468;29;20468;-74
2023/11/30 01:39:46;;;;;;;8.40;5.10;;;1.80;99.90;;;;;;4956474;29;20059;-75
2023/11/30 01:42:12;;;;;;;8.73;5.50;;;1.70;99.90;;;;;;4954787;29;20343;-74
2023/11/30 01:44:38;;;;;;;7.33;4.43;;;1.70;99.90;;;;;;4955249;29;20083;-74
2023/11/30 01:47:04;;;;;;;12.37;5.10;;;1.60;99.90;;;;;;4954671;29;20020;-74
2023/11/30 01:49:30;;;;;;;10.87;5.50;;;1.60;99.90;;;;;;4955329;29;20070;-74
2023/11/30 01:51:56;;;;;;;10.13;5.57;;;1.60;99.90;;;;;;4954260;29;20039;-75
2023/11/30 01:54:22;;;;;;;8.07;4.80;;;1.50;99.90;;;;;;4956336;28;20035;-74
2023/11/30 01:56:48;;;;;;;10.07;5.43;;;1.50;99.90;;;;;;4954572;29;20436;-74
2023/11/30 01:59:14;;;;;;;10.13;5.30;;;1.50;99.90;;;;;;4954437;29;20538;-74
2023/11/30 02:01:41;;;;;;;8.00;4.60;;;1.50;99.90;;;;;;4954736;29;20043;-74
2023/11/30 02:04:15;;;;;;;9.07;4.80;;;1.50;99.90;;;;;;4954306;29;20027;-74
2023/11/30 02:06:43;;;;;;;8.97;4.80;;;1.40;99.90;;;;;;4954716;29;20027;-74
2023/11/30 02:09:10;;;;;;;7.80;4.70;;;1.30;99.90;;;;;;4954151;29;20023;-74
2023/11/30 02:11:36;;;;;;;7.43;4.43;;;1.30;99.90;;;;;;4954304;29;20039;-74
2023/11/30 02:14:03;;;;;;;9.07;4.80;;;1.20;99.90;;;;;;4954128;29;20027;-74
2023/11/30 02:16:29;;;;;;;10.40;4.93;;;1.20;99.90;;;;;;4955861;28;20027;-74
2023/11/30 02:18:54;;;;;;;9.97;5.17;;;1.20;99.90;;;;;;4954144;29;20450;-81
2023/11/30 02:21:20;;;;;;;7.90;4.80;;;1.10;99.90;;;;;;4953592;29;20459;-73
2023/11/30 02:23:47;;;;;;;9.53;4.90;;;1.10;99.90;;;;;;4919215;29;20038;-73
2023/11/30 02:26:13;;;;;;;8.70;4.80;;;1.10;99.90;;;;;;4935462;29;20114;-73
2023/11/30 02:28:38;;;;;;;8.30;4.70;;;1.10;99.90;;;;;;4919067;29;20437;-73
2023/11/30 02:31:04;;;;;;;8.90;4.53;;;1.00;99.90;;;;;;4918844;29;20031;-74
2023/11/30 02:33:30;;;;;;;9.00;5.17;;;1.10;99.90;;;;;;4919223;29;20067;-73
2023/11/30 02:35:55;;;;;;;9.43;4.47;;;1.00;99.90;;;;;;4918896;29;20034;-81
2023/11/30 02:38:21;;;;;;;9.93;4.77;;;1.00;99.90;;;;;;4919289;29;20035;-74
2023/11/30 02:40:47;;;;;;;9.20;4.77;;;1.00;99.90;;;;;;4936220;29;20023;-74
2023/11/30 02:43:12;;;;;;;8.17;4.77;;;1.00;99.90;;;;;;4918282;29;20604;-74
2023/11/30 02:45:38;;;;;;;11.67;4.50;;;1.00;99.90;;;;;;4919214;29;20068;-74
2023/11/30 02:48:04;;;;;;;8.80;4.50;;;1.10;99.90;;;;;;4918582;29;20059;-74
2023/11/30 02:50:29;;;;;;;8.40;4.60;;;1.20;99.90;;;;;;4936073;29;20032;-74
2023/11/30 02:52:55;;;;;;;11.10;3.87;;;1.30;99.90;;;;;;4919292;29;20047;-73
2023/11/30 02:55:21;;;;;;;9.07;4.13;;;1.30;99.90;;;;;;4935618;29;20457;-73
2023/11/30 02:57:48;;;;;;;8.07;3.83;;;1.40;99.90;;;;;;4918974;29;20059;-74
2023/11/30 03:00:13;;;;;;;9.83;4.10;;;1.40;99.90;;;;;;4918345;29;20506;-74
2023/11/30 03:02:39;;;;;;;9.67;4.40;;;1.40;99.90;;;;;;4918762;29;20036;-74
2023/11/30 03:05:05;;;;;;;6.90;4.20;;;1.40;99.90;;;;;;4918418;29;20036;-74
2023/11/30 03:07:30;;;;;;;6.80;3.77;;;1.50;99.90;;;;;;4918440;29;20584;-73
2023/11/30 03:09:56;;;;;;;9.87;4.10;;;1.50;99.90;;;;;;4935769;29;20027;-74
2023/11/30 03:12:21;;;;;;;7.47;4.10;;;1.40;99.90;;;;;;4918382;29;20039;-74
2023/11/30 03:14:47;;;;;;;8.00;4.00;;;1.40;99.90;;;;;;4935448;29;20059;-73
2023/11/30 03:17:13;;;;;;;8.40;3.77;;;1.40;99.90;;;;;;4935511;29;20469;-74
2023/11/30 03:19:39;;;;;;;4.97;3.43;;;1.40;99.90;;;;;;4935647;29;20024;-74
2023/11/30 03:22:04;;;;;;;7.23;3.63;;;1.40;99.90;;;;;;4935003;29;20043;-74
2023/11/30 03:24:30;;;;;;;7.07;3.93;;;1.50;99.90;;;;;;4918795;29;20039;-74
2023/11/30 03:26:56;;;;;;;7.47;3.70;;;1.40;99.90;;;;;;4918513;29;20059;-74
2023/11/30 03:29:21;;;;;;;7.77;3.83;;;1.40;99.90;;;;;;4918197;29;20030;-73
2023/11/30 03:31:47;;;;;;;5.77;3.23;;;1.40;99.90;;;;;;4918524;29;20507;-73
2023/11/30 03:34:12;;;;;;;5.67;3.17;;;1.50;99.90;;;;;;4918137;29;20028;-73
2023/11/30 03:36:38;;;;;;;7.60;3.70;;;1.50;99.90;;;;;;4918480;29;20036;-73
2023/11/30 03:39:04;;;;;;;6.10;3.70;;;1.60;99.90;;;;;;4919657;29;20114;-73
2023/11/30 03:41:30;;;;;;;6.57;3.60;;;1.60;99.90;;;;;;4939387;29;20035;-73
2023/11/30 03:43:55;;;;;;;7.57;4.00;;;1.60;99.90;;;;;;4922441;29;20079;-74
2023/11/30 03:46:24;;;;;;;7.83;3.90;;;1.60;99.90;;;;;;4938931;29;20381;-73
2023/11/30 03:48:53;;;;;;;7.33;3.30;;;1.60;99.90;;;;;;4922421;29;20469;-73
2023/11/30 03:51:19;;;;;;;5.70;3.43;;;1.50;99.90;;;;;;4921534;29;20035;-73
2023/11/30 03:53:45;;;;;;;6.07;3.47;;;1.60;99.90;;;;;;4922196;29;20031;-73
2023/11/30 03:56:10;;;;;;;5.60;3.20;;;1.50;99.90;;;;;;4921724;29;20028;-73
2023/11/30 03:58:36;;;;;;;4.70;2.73;;;1.50;99.90;;;;;;4922093;29;20381;-73
2023/11/30 04:01:01;;;;;;;6.07;3.13;;;1.60;99.90;;;;;;4921626;29;20036;-74
2023/11/30 04:03:27;;;;;;;5.37;2.70;;;1.60;99.90;;;;;;4938979;29;20035;-73
2023/11/30 04:05:53;;;;;;;6.07;3.30;;;1.60;99.90;;;;;;4921978;29;20485;-73
2023/11/30 04:08:18;;;;;;;5.20;2.93;;;1.60;99.90;;;;;;4938559;29;20034;-73
2023/11/30 04:10:44;;;;;;;6.80;3.10;;;1.60;99.90;;;;;;4938992;29;20099;-73
2023/11/30 04:13:10;;;;;;;7.70;3.60;;;1.60;99.90;;;;;;4938400;29;20106;-73
2023/11/30 04:15:35;;;;;;;8.20;3.53;;;1.70;99.90;;;;;;4921941;29;20138;-73
2023/11/30 04:18:01;;;;;;;5.03;3.30;;;1.70;99.90;;;;;;4921875;29;20124;-73
2023/11/30 04:20:27;;;;;;;6.37;2.80;;;1.60;99.90;;;;;;4921553;29;20071;-73
2023/11/30 04:22:52;;;;;;;9.03;3.83;;;1.60;99.90;;;;;;4943503;29;20064;-73
2023/11/30 04:25:18;;;;;;;7.80;3.60;;;1.60;99.90;;;;;;4957722;29;20107;-73
2023/11/30 04:27:43;;;;;;;8.87;3.70;;;1.60;99.90;;;;;;4956569;29;20028;-73
2023/11/30 04:30:09;;;;;;;7.30;3.90;;;1.60;99.90;;;;;;4956181;29;20023;-73
2023/11/30 04:32:35;;;;;;;9.90;3.67;;;1.60;99.90;;;;;;4957747;28;20031;-73
2023/11/30 04:35:00;;;;;;;7.70;3.57;;;1.60;99.90;;;;;;4956442;29;20050;-73
2023/11/30 04:37:26;;;;;;;7.60;3.80;;;1.50;99.90;;;;;;4955890;29;20054;-73
2023/11/30 04:39:52;;;;;;;5.90;3.20;;;1.60;99.90;;;;;;4956518;29;20031;-73
2023/11/30 04:42:17;;;;;;;6.90;3.70;;;1.60;99.90;;;;;;4955802;29;20094;-73
2023/11/30 04:44:43;;;;;;;4.93;3.27;;;1.60;99.90;;;;;;4957570;29;20027;-73
2023/11/30 04:47:08;;;;;;;6.10;3.60;;;1.50;99.90;;;;;;4955763;29;20023;-74
2023/11/30 04:49:34;;;;;;;5.60;3.37;;;1.50;99.90;;;;;;4971715;28;20027;-73
2023/11/30 04:51:59;;;;;;;5.63;3.23;;;1.50;99.90;;;;;;4957609;29;20038;-73
2023/11/30 04:54:25;;;;;;;6.53;3.60;;;1.50;99.90;;;;;;4955677;29;20042;-73
2023/11/30 04:56:51;;;;;;;7.53;3.50;;;1.40;99.90;;;;;;4972214;28;20066;-73
2023/11/30 04:59:16;;;;;;;7.40;3.50;;;1.40;99.90;;;;;;4955638;29;20038;-73
2023/11/30 05:01:42;;;;;;;5.40;3.37;;;1.40;99.90;;;;;;4955907;29;20127;-73
2023/11/30 05:04:08;;;;;;;4.73;2.83;;;1.40;99.90;;;;;;4956757;29;20034;-73
2023/11/30 05:06:33;;;;;;;5.50;3.03;;;1.40;99.90;;;;;;4956041;29;20027;-73
2023/11/30 05:08:59;;;;;;;6.53;3.03;;;1.40;99.90;;;;;;4955589;29;20118;-73
2023/11/30 05:11:25;;;;;;;4.80;3.10;;;1.50;99.90;;;;;;4955455;29;20039;-73
2023/11/30 05:13:50;;;;;;;4.23;2.80;;;1.50;99.90;;;;;;4955692;29;20535;-73
2023/11/30 05:16:16;;;;;;;9.30;3.20;;;1.50;99.90;;;;;;4956508;29;20144;-73
2023/11/30 05:18:42;;;;;;;6.93;3.47;;;1.50;99.90;;;;;;4955783;29;20027;-73
2023/11/30 05:21:07;;;;;;;5.27;3.27;;;1.40;99.90;;;;;;4955069;29;20400;-73
2023/11/30 05:23:33;;;;;;;5.70;3.47;;;1.40;99.90;;;;;;4955082;29;20061;-73
2023/11/30 05:25:59;;;;;;;6.43;3.70;;;1.40;99.90;;;;;;4956899;29;20443;-73
2023/11/30 05:28:25;;;;;;;6.63;3.43;;;1.30;99.90;;;;;;4956390;29;20508;-73
2023/11/30 05:30:50;;;;;;;7.17;3.60;;;1.30;99.90;;;;;;4955474;29;20106;-73
2023/11/30 05:33:16;;;;;;;7.77;3.87;;;1.40;99.90;;;;;;4955021;29;20083;-73
2023/11/30 05:35:41;;;;;;;10.30;3.60;;;1.30;99.90;;;;;;4955362;29;20023;-73
2023/11/30 05:38:07;;;;;;;5.63;3.43;;;1.30;99.90;;;;;;4954895;29;20027;-74
2023/11/30 05:40:33;;;;;;;5.83;3.40;;;1.40;99.90;;;;;;4955504;29;20143;-73
2023/11/30 05:42:59;;;;;;;6.87;3.30;;;1.40;99.90;;;;;;4955126;29;20043;-73
2023/11/30 05:45:27;;;;;;;6.93;3.27;;;1.40;99.90;;;;;;4954453;29;20034;-73
2023/11/30 05:47:53;;;;;;;6.07;3.40;;;1.40;99.90;;;;;;4955181;29;20118;-73
2023/11/30 05:50:19;;;;;;;6.80;3.50;;;1.40;99.90;;;;;;4955853;28;20552;-73
2023/11/30 05:52:45;;;;;;;7.47;3.80;;;1.40;99.90;;;;;;4956045;28;20105;-73
2023/11/30 05:55:11;;;;;;;6.47;3.33;;;1.40;99.90;;;;;;4955871;28;20464;-73
2023/11/30 05:57:37;;;;;;;5.87;3.30;;;1.40;99.90;;;;;;4954925;29;20027;-73
2023/11/30 06:00:04;;;;;;;7.07;3.30;;;1.40;99.90;;;;;;4954957;29;20027;-73
2023/11/30 06:02:31;;;;;;;5.73;3.23;;;1.40;99.90;;;;;;4953430;28;20035;-73
2023/11/30 06:04:57;;;;;;;4.70;3.47;;;1.40;99.90;;;;;;4954834;29;20063;-72
2023/11/30 06:07:23;;;;;;;4.87;3.00;;;1.40;99.90;;;;;;4955518;28;20396;-73
2023/11/30 06:09:49;;;;;;;7.17;3.47;;;1.40;99.90;;;;;;4954680;29;20031;-73
2023/11/30 06:12:14;;;;;;;6.63;3.10;;;1.40;99.90;;;;;;4953991;29;20079;-73
2023/11/30 06:14:40;;;;;;;6.13;3.10;;;1.40;99.90;;;;;;4954425;29;20486;-73
2023/11/30 06:17:06;;;;;;;6.93;2.90;;;1.40;99.90;;;;;;4954856;29;20027;-73
2023/11/30 06:19:32;;;;;;;5.43;3.00;;;1.50;99.90;;;;;;4954385;29;20118;-73
2023/11/30 06:21:59;;;;;;;5.93;3.17;;;1.50;99.90;;;;;;4953832;29;20488;-73
2023/11/30 06:24:26;;;;;;;4.43;2.90;;;1.50;99.90;;;;;;4970134;28;20035;-73
2023/11/30 06:26:52;;;;;;;7.07;3.27;;;1.50;99.90;;;;;;4955514;28;20058;-73
2023/11/30 06:29:17;;;;;;;7.03;3.43;;;1.50;99.90;;;;;;4953779;29;20070;-73
2023/11/30 06:31:43;;;;;;;5.13;3.00;;;1.60;99.90;;;;;;4955302;29;20035;-73
2023/11/30 06:34:09;;;;;;;4.60;2.90;;;1.60;99.90;;;;;;4954200;29;20365;-73
2023/11/30 06:36:34;;;;;;;5.27;3.13;;;1.60;99.90;;;;;;4953753;29;20023;-73
2023/11/30 06:39:00;;;;;;;6.47;3.23;;;1.50;99.90;;;;;;4954069;29;20366;-73
2023/11/30 06:41:25;;;;;;;4.43;3.00;;;1.50;99.90;;;;;;4953701;29;20042;-73
2023/11/30 06:43:51;;;;;;;4.80;3.07;;;1.50;99.90;;;;;;4954087;29;20039;-73
2023/11/30 06:46:22;;;;;;;5.13;2.90;;;1.50;99.90;;;;;;4954643;29;20448;-73
2023/11/30 06:48:51;;;;;;;6.25;3.22;;;1.40;99.90;;;;;;4955306;28;20023;-73
2023/11/30 06:51:17;;;;;;;5.87;3.40;;;1.50;99.90;;;;;;4953366;29;20031;-73
2023/11/30 06:53:43;;;;;;;9.00;3.83;;;1.40;99.90;;;;;;4953872;29;20388;-73
2023/11/30 06:56:12;;;;;;;4.90;3.10;;;1.40;99.90;;;;;;4953572;29;20027;-73
2023/11/30 06:58:38;;;;;;;6.23;3.07;;;1.30;99.90;;;;;;4954012;29;20034;-73
2023/11/30 07:01:09;;;;;;;5.17;3.33;;;1.30;99.90;;;;;;4953944;29;20031;-73
2023/11/30 07:03:35;;;;;;;4.87;2.87;;;1.40;99.90;;;;;;4953451;29;20357;-73
2023/11/30 07:06:00;;;;;;;5.23;2.87;;;1.40;99.90;;;;;;4953773;29;20086;-73
2023/11/30 07:08:26;;;;;;;5.90;3.17;;;1.40;99.90;;;;;;4954472;29;20102;-73
2023/11/30 07:10:52;;;;;;;4.60;2.90;;;1.40;99.90;;;;;;4953794;29;20027;-73
2023/11/30 07:13:18;;;;;;;6.30;3.17;;;1.40;99.90;;;;;;4954193;28;20031;-73
2023/11/30 07:15:43;;;;;;;6.10;3.43;;;1.40;99.90;;;;;;4953872;29;20041;-73
2023/11/30 07:18:11;;;;;;;6.27;3.37;;;1.50;99.90;;;;;;4969611;28;20110;-73
2023/11/30 07:20:36;;;;;;;6.83;3.07;;;1.50;99.90;;;;;;4954626;28;20035;-74
2023/11/30 07:23:04;;;;;;;6.47;3.43;;;1.60;99.90;;;;;;4955542;28;20095;-74
2023/11/30 07:25:30;;;;;;;5.03;2.93;;;1.70;99.90;;;;;;4934940;29;20103;-74
2023/11/30 07:27:56;;;;;;;8.90;3.13;;;1.70;99.90;;;;;;4935683;29;20481;-73
2023/11/30 07:30:21;;;;;;;5.10;2.87;;;1.70;99.90;;;;;;4918021;29;20466;-73
2023/11/30 07:32:47;;;;;;;5.00;2.77;;;1.70;99.90;;;;;;4918527;29;20028;-73
2023/11/30 07:35:13;;;;;;;6.03;3.13;;;1.70;99.90;;;;;;4918246;29;20083;-80
2023/11/30 07:37:38;;;;;;;4.50;2.80;;;1.70;99.90;;;;;;4935521;29;20532;-73
2023/11/30 07:40:04;;;;;;;4.93;2.97;;;1.70;99.90;;;;;;4918671;29;20032;-73
2023/11/30 07:42:30;;;;;;;5.37;3.07;;;1.60;99.90;;;;;;4917923;29;20548;-73
2023/11/30 07:44:56;;;;;;;4.33;2.87;;;1.60;99.90;;;;;;4918449;29;20054;-73
2023/11/30 07:47:22;;;;;;;5.77;3.13;;;1.60;99.90;;;;;;4935310;29;20163;-73
2023/11/30 07:49:48;;;;;;;5.77;3.00;;;1.60;99.90;;;;;;4935166;29;20047;-73
2023/11/30 07:52:14;;;;;;;6.67;3.30;;;1.60;99.90;;;;;;4917937;29;20043;-73
2023/11/30 07:54:40;;;;;;;6.63;3.17;;;1.60;99.90;;;;;;4918683;29;20394;-74
2023/11/30 07:57:06;;;;;;;5.50;3.40;;;1.60;99.90;;;;;;4918355;29;20031;-73
2023/11/30 07:59:32;;;;;;;8.00;3.53;;;1.60;99.90;;;;;;4934943;29;20082;-74
2023/11/30 08:01:57;;;;;;;8.37;3.70;;;1.60;99.90;;;;;;4918273;29;20043;-73
2023/11/30 08:04:23;;;;;;;6.97;3.63;;;1.70;99.90;;;;;;4917552;29;20042;-74
2023/11/30 08:06:48;;;;;;;10.23;4.00;;;1.80;99.90;;;;;;4935247;29;20035;-74
2023/11/30 08:09:14;;;;;;;7.70;4.30;;;1.80;99.90;;;;;;4935295;29;20031;-74
2023/11/30 08:11:40;;;;;;;6.40;3.60;;;1.90;99.90;;;;;;4934852;29;20024;-74
2023/11/30 08:14:06;;;;;;;6.33;3.43;;;1.90;99.90;;;;;;4918090;29;20023;-74
2023/11/30 08:16:33;;;;;;;8.10;4.30;;;2.00;99.90;;;;;;4917485;29;20067;-74
2023/11/30 08:18:59;;;;;;;6.83;2.97;;;2.00;99.90;;;;;;4934750;29;20039;-74
2023/11/30 08:21:25;;;;;;;6.03;3.30;;;2.00;99.90;;;;;;4934260;29;20028;-74
2023/11/30 08:23:51;;;;;;;7.00;4.00;;;2.10;99.90;;;;;;4917951;29;20071;-74
2023/11/30 08:26:16;;;;;;;6.40;3.33;;;2.20;99.90;;;;;;4920859;29;20024;-78
2023/11/30 08:28:45;;;;;;;7.17;3.77;;;2.20;99.90;;;;;;4921493;29;20091;-74
2023/11/30 08:31:11;;;;;;;6.87;4.17;;;2.10;99.90;;;;;;4921436;29;20036;-74
2023/11/30 08:33:37;;;;;;;7.67;4.10;;;2.00;99.90;;;;;;4938128;29;20036;-74
2023/11/30 08:36:04;;;;;;;8.50;4.70;;;2.10;99.90;;;;;;4938462;29;20038;-74
2023/11/30 08:38:35;;;;;;;7.87;4.47;;;2.00;99.90;;;;;;4920952;29;20111;-75
2023/11/30 08:41:02;;;;;;;7.10;3.78;;;2.10;99.90;;;;;;4938443;29;20075;-73
2023/11/30 08:43:27;;;;;;;6.93;3.57;;;2.00;99.90;;;;;;4937667;29;20540;-74
2023/11/30 08:45:53;;;;;;;5.60;3.27;;;2.10;99.90;;;;;;4938262;29;20051;-74
2023/11/30 08:48:18;;;;;;;6.80;3.47;;;2.10;99.90;;;;;;4937981;29;20086;-75
2023/11/30 08:50:44;;;;;;;7.27;3.70;;;2.10;99.90;;;;;;4938356;29;20517;-74
2023/11/30 08:53:10;;;;;;;7.07;3.40;;;2.10;99.90;;;;;;4916559;29;20080;-73
2023/11/30 08:55:36;;;;;;;6.37;4.07;;;2.00;99.90;;;;;;4926049;29;20028;-72
2023/11/30 08:58:02;;;;;;;7.93;3.87;;;2.10;99.90;;;;;;4937578;29;20034;-72
2023/11/30 09:00:28;;;;;;;7.07;3.67;;;2.00;99.90;;;;;;4919890;29;20023;-72
2023/11/30 09:02:56;;;;;;;7.00;3.60;;;2.10;99.90;;;;;;4920431;29;20046;-72
2023/11/30 09:05:23;;;;;;;7.70;4.27;;;2.20;99.90;;;;;;4919886;29;20027;-73
2023/11/30 09:07:50;;;;;;;6.90;3.93;;;2.20;99.90;;;;;;4920325;29;20043;-73
2023/11/30 09:10:18;;;;;;;8.13;3.93;;;2.20;99.90;;;;;;4919882;29;20031;-73
2023/11/30 09:12:44;;;;;;;8.13;4.53;;;2.20;99.90;;;;;;4920269;29;20031;-73
2023/11/30 09:15:10;;;;;;;9.23;4.00;;;2.30;99.90;;;;;;4937249;29;20111;-75
2023/11/30 09:17:36;;;;;;;5.87;3.50;;;2.40;99.90;;;;;;4936801;29;20106;-74
2023/11/30 09:20:04;;;;;;;8.37;4.17;;;2.40;99.90;;;;;;4920240;29;20385;-73
2023/11/30 09:22:30;;;;;;;8.93;4.57;;;2.50;99.90;;;;;;4918990;29;20066;-73
2023/11/30 09:24:55;;;;;;;9.00;4.90;;;2.50;99.90;;;;;;4920069;29;20122;-73
2023/11/30 09:27:21;;;;;;;11.03;5.17;;;2.50;99.90;;;;;;4919645;29;20058;-73
2023/11/30 09:29:46;;;;;;;9.33;4.80;;;2.40;99.90;;;;;;4920203;29;20051;-74
2023/11/30 09:32:12;;;;;;;11.73;5.40;;;2.50;99.90;;;;;;4919969;29;20466;-74
2023/11/30 09:34:38;;;;;;;9.73;4.70;;;2.60;99.90;;;;;;4936756;29;20138;-73
2023/11/30 09:37:03;;;;;;;10.97;5.00;;;2.60;99.90;;;;;;4919839;29;20046;-73
2023/11/30 09:39:29;;;;;;;8.87;5.10;;;2.60;99.90;;;;;;4919724;29;20024;-73
2023/11/30 09:41:59;;;;;;;10.47;5.63;;;2.60;99.90;;;;;;4919719;29;20027;-73
2023/11/30 09:44:26;;;;;;;10.97;5.80;;;2.50;99.90;;;;;;4936276;29;20032;-73
2023/11/30 09:46:51;;;;;;;10.00;5.63;;;2.40;99.90;;;;;;4919765;29;20031;-73
2023/11/30 09:49:17;;;;;;;9.77;5.13;;;2.30;99.90;;;;;;4936859;29;20363;-79
2023/11/30 09:51:50;;;;;;;7.50;4.67;;;2.40;99.90;;;;;;4919521;29;20032;-73
2023/11/30 09:54:16;;;;;;;9.63;4.93;;;2.60;99.90;;;;;;4926058;29;20401;-74
2023/11/30 09:56:42;;;;;;;10.83;5.03;;;2.60;99.90;;;;;;4936127;29;20023;-74
2023/11/30 09:59:08;;;;;;;9.13;5.20;;;2.70;99.90;;;;;;4922808;29;20040;-74
2023/11/30 10:01:33;;;;;;;9.00;5.20;;;2.80;99.90;;;;;;4919405;29;20036;-74
2023/11/30 10:03:59;;;;;;;12.03;4.80;;;2.80;99.90;;;;;;4919771;29;20062;-74
2023/11/30 10:06:24;;;;;;;9.13;5.23;;;2.80;99.90;;;;;;4919486;29;20492;-74
2023/11/30 10:08:50;;;;;;;8.70;4.97;;;2.90;99.90;;;;;;4936581;29;20031;-74
2023/11/30 10:11:16;;;;;;;9.43;5.00;;;2.90;99.90;;;;;;4919751;29;20091;-74
2023/11/30 10:13:42;;;;;;;13.30;4.70;;;2.90;99.90;;;;;;4918953;29;20036;-74
2023/11/30 10:16:10;;;;;;;9.37;4.57;;;3.00;99.90;;;;;;4930718;29;20047;-73
2023/11/30 10:18:36;;;;;;;8.73;4.23;;;3.10;99.90;;;;;;4918988;29;20028;-73
2023/11/30 10:21:02;;;;;;;7.00;4.07;;;3.10;99.90;;;;;;4918933;29;20094;-73
2023/11/30 10:23:29;;;;;;;7.07;4.13;;;3.20;99.90;;;;;;4935736;29;20130;-73
2023/11/30 10:25:56;;;;;;;7.90;4.30;;;3.20;99.90;;;;;;4919046;29;20034;-73
2023/11/30 10:28:22;;;;;;;9.30;4.70;;;3.20;99.90;;;;;;4935539;29;20024;-74
2023/11/30 10:30:51;;;;;;;9.70;4.97;;;3.20;99.90;;;;;;4925133;29;20019;-74
2023/11/30 10:33:22;;;;;;;7.63;4.10;;;3.10;99.90;;;;;;4935873;29;20460;-73
2023/11/30 10:35:50;;;;;;;7.43;4.20;;;3.10;99.90;;;;;;4936102;29;20059;-73
2023/11/30 10:38:26;;;;;;;7.10;4.20;;;3.20;99.90;;;;;;4935976;29;20024;-73
2023/11/30 10:40:58;;;;;;;7.63;4.20;;;3.40;99.90;;;;;;4918849;29;20062;-73
2023/11/30 10:43:24;;;;;;;7.90;4.55;;;3.40;99.90;;;;;;4935065;29;20041;-73
2023/11/30 10:45:54;;;;;;;7.30;4.47;;;3.40;99.90;;;;;;4918658;29;20027;-74
2023/11/30 10:48:21;;;;;;;10.47;4.50;;;3.40;99.90;;;;;;4934805;29;20103;-74
2023/11/30 10:50:46;;;;;;;6.23;3.83;;;3.50;99.90;;;;;;4935565;29;20063;-73
2023/11/30 10:53:35;;;;;;;13.23;4.33;;;3.50;99.90;;;;;;4935683;29;20086;-73
2023/11/30 10:56:02;;;;;;;7.90;3.97;;;3.50;99.90;;;;;;4918591;29;20024;-73
2023/11/30 10:58:28;;;;;;;7.57;4.00;;;3.60;99.90;;;;;;4917990;29;20031;-73
2023/11/30 11:00:57;;;;;;;8.30;4.30;;;3.60;99.90;;;;;;4918601;29;20062;-73
2023/11/30 11:03:24;;;;;;;6.17;4.13;;;3.60;99.90;;;;;;4935118;29;20039;-73
2023/11/30 11:05:51;;;;;;;6.77;3.70;;;3.60;99.90;;;;;;4918275;29;20461;-72
2023/11/30 11:08:18;;;;;;;9.33;4.43;;;3.70;99.90;;;;;;4918369;29;20478;-72
2023/11/30 11:10:48;;;;;;;8.00;3.87;;;3.60;99.90;;;;;;4935280;29;20042;-73
2023/11/30 11:13:26;;;;;;;7.77;3.70;;;3.70;99.90;;;;;;4918070;29;20035;-74
2023/11/30 11:15:59;;;;;;;5.47;3.50;;;3.80;99.90;;;;;;4918088;29;20539;-73
2023/11/30 11:18:32;;;;;;;7.97;4.70;;;3.80;99.90;;;;;;4934658;29;20028;-73
2023/11/30 11:20:59;;;;;;;6.00;3.73;;;3.80;99.90;;;;;;4918158;29;20035;-73
2023/11/30 11:23:38;;;;;;;6.70;4.23;;;3.80;99.90;;;;;;4934729;29;20055;-74
2023/11/30 11:26:06;;;;;;;12.50;4.97;;;3.80;99.90;;;;;;4935400;29;20106;-74
2023/11/30 11:28:31;;;;;;;10.73;5.80;;;3.80;99.90;;;;;;4917716;29;20035;-74
2023/11/30 11:30:57;;;;;;;9.33;4.90;;;3.90;99.90;;;;;;4918230;29;20028;-73
2023/11/30 11:33:25;;;;;;;7.27;4.67;;;3.90;99.90;;;;;;4917608;29;20122;-73
2023/11/30 11:35:51;;;;;;;8.53;4.60;;;3.90;99.90;;;;;;4935476;29;20027;-73
2023/11/30 11:38:18;;;;;;;8.53;4.40;;;3.90;99.90;;;;;;4935439;29;20034;-73
2023/11/30 11:40:44;;;;;;;9.17;5.13;;;3.90;99.90;;;;;;4917916;29;20039;-73
2023/11/30 11:43:10;;;;;;;7.90;4.70;;;3.90;99.90;;;;;;4917722;29;20040;-74
2023/11/30 11:45:36;;;;;;;6.77;4.90;;;3.90;99.90;;;;;;4917472;29;20035;-73
2023/11/30 11:48:02;;;;;;;9.13;5.07;;;3.80;99.90;;;;;;4934808;29;20418;-73
2023/11/30 11:50:28;;;;;;;7.87;5.53;;;3.80;99.90;;;;;;4925945;29;20032;-73
2023/11/30 11:53:01;;;;;;;8.57;4.63;;;3.90;99.90;;;;;;4934804;29;20044;-74
2023/11/30 11:55:26;;;;;;;8.83;5.23;;;4.00;99.90;;;;;;4934532;29;20023;-73
2023/11/30 11:57:53;;;;;;;11.57;5.20;;;4.00;99.90;;;;;;4934968;29;20035;-73
2023/11/30 12:00:20;;;;;;;10.57;5.47;;;4.00;99.90;;;;;;4936352;29;20019;-77
2023/11/30 12:02:47;;;;;;;10.47;5.60;;;4.00;99.90;;;;;;4938989;29;20122;-74
2023/11/30 12:05:25;;;;;;;10.80;5.40;;;4.10;99.90;;;;;;4924402;29;20028;-73
2023/11/30 12:07:59;;;;;;;9.63;5.50;;;4.10;99.90;;;;;;4921769;29;20032;-73
2023/11/30 12:10:50;;;;;;;10.20;5.57;;;4.10;99.90;;;;;;4920906;29;20528;-74
2023/11/30 12:13:16;;;;;;;10.20;5.93;;;4.10;99.90;;;;;;4921452;29;20083;-74
2023/11/30 12:15:42;;;;;;;9.47;5.97;;;4.00;99.90;;;;;;4921920;29;20036;-73
2023/11/30 12:18:07;;;;;;;9.97;6.00;;;4.00;99.90;;;;;;4938733;29;20023;-75
2023/11/30 12:20:33;;;;;;;11.57;5.90;;;4.00;99.90;;;;;;4920793;29;20028;-74
2023/11/30 12:22:59;;;;;;;11.50;5.87;;;4.00;99.90;;;;;;4921088;29;20047;-73
2023/11/30 12:25:25;;;;;;;8.73;5.67;;;4.00;99.90;;;;;;4937867;29;20070;-73
2023/11/30 12:27:51;;;;;;;10.43;5.37;;;4.10;99.90;;;;;;4921223;29;20091;-73
2023/11/30 12:30:18;;;;;;;10.37;6.13;;;4.00;99.90;;;;;;4921167;29;20024;-73
2023/11/30 12:32:45;;;;;;;12.13;6.00;;;4.00;99.90;;;;;;4938120;29;20374;-73
2023/11/30 12:35:12;;;;;;;10.63;6.07;;;4.00;99.90;;;;;;4921089;29;20063;-74
2023/11/30 12:37:37;;;;;;;10.97;6.10;;;4.00;99.90;;;;;;4920493;29;20083;-74
2023/11/30 12:40:06;;;;;;;11.30;6.23;;;4.00;99.90;;;;;;4933051;29;20110;-73
2023/11/30 12:42:32;;;;;;;11.63;6.80;;;4.10;99.90;;;;;;4920107;29;20086;-74
2023/11/30 12:44:59;;;;;;;10.37;6.00;;;4.10;99.90;;;;;;4917557;29;20032;-73
2023/11/30 12:47:25;;;;;;;11.97;5.97;;;4.10;99.90;;;;;;4920362;29;20032;-73
2023/11/30 12:49:51;;;;;;;13.27;6.83;;;3.90;99.90;;;;;;4938017;29;20027;-73
2023/11/30 12:52:16;;;;;;;11.63;6.30;;;4.00;99.90;;;;;;4937480;29;20507;-73